Time;durP1;ratioP1;P1;durP2;ratioP2;P2;SDS_P1;SDS_P2;PMS_P1;PMS_P2;Temp;Humidity;BMP_temperature;BMP_pressure;BME280_temperature;BME280_humidity;BME280_pressure;Samples;Min_cycle;Max_cycle;Signal;HPM_P1;HPM_P2
2022/08/27 00:01:31;;;;;;;1.15;0.70;;;;;;;;;;5031701;28;20037;-57
2022/08/27 00:03:57;;;;;;;1.90;0.90;;;;;;;;;;5033040;28;20049;-58
2022/08/27 00:06:24;;;;;;;0.98;0.60;;;;;;;;;;5032609;28;20052;-56
2022/08/27 00:08:51;;;;;;;0.98;0.60;;;;;;;;;;5036320;28;20049;-57
2022/08/27 00:11:18;;;;;;;0.70;0.70;;;;;;;;;;5039725;28;20090;-58
2022/08/27 00:13:45;;;;;;;0.77;0.50;;;;;;;;;;5036600;28;20053;-59
2022/08/27 00:16:13;;;;;;;0.60;0.60;;;;;;;;;;5036484;28;20116;-56
2022/08/27 00:18:40;;;;;;;0.43;0.40;;;;;;;;;;5032674;28;20048;-57
2022/08/27 00:21:06;;;;;;;0.60;0.60;;;;;;;;;;5038371;28;20111;-57
2022/08/27 00:23:33;;;;;;;0.40;0.40;;;;;;;;;;5041325;28;20041;-59
2022/08/27 00:25:59;;;;;;;0.70;0.43;;;;;;;;;;5034355;28;20056;-59
2022/08/27 00:28:26;;;;;;;0.70;0.70;;;;;;;;;;5041150;28;20037;-55
2022/08/27 00:30:54;;;;;;;0.70;0.65;;;;;;;;;;5035449;28;20824;-59
2022/08/27 00:33:20;;;;;;;1.25;0.65;;;;;;;;;;5036920;28;20048;-57
2022/08/27 00:35:46;;;;;;;2.33;0.88;;;;;;;;;;5038674;28;20386;-57
2022/08/27 00:38:12;;;;;;;0.73;0.70;;;;;;;;;;5036763;28;20696;-58
2022/08/27 00:40:38;;;;;;;0.75;0.70;;;;;;;;;;5040494;28;20093;-55
2022/08/27 00:43:04;;;;;;;0.43;0.43;;;;;;;;;;5034524;28;20052;-55
2022/08/27 00:45:32;;;;;;;1.00;0.80;;;;;;;;;;5040130;28;20489;-56
2022/08/27 00:48:00;;;;;;;0.70;0.63;;;;;;;;;;5038207;28;20082;-57
2022/08/27 00:50:29;;;;;;;1.08;0.70;;;;;;;;;;5036875;28;20123;-56
2022/08/27 00:52:57;;;;;;;0.60;0.50;;;;;;;;;;5036276;28;20405;-55
2022/08/27 00:55:46;;;;;;;0.50;0.50;;;;;;;;;;5034223;28;20041;-58
2022/08/27 00:58:15;;;;;;;1.13;0.57;;;;;;;;;;5026324;28;20060;-57
2022/08/27 01:00:41;;;;;;;0.90;0.75;;;;;;;;;;5024773;28;20067;-56
2022/08/27 01:03:08;;;;;;;1.13;0.95;;;;;;;;;;5033422;28;20493;-56
2022/08/27 01:05:35;;;;;;;1.35;0.75;;;;;;;;;;5039941;28;20048;-57
2022/08/27 01:08:03;;;;;;;1.20;0.82;;;;;;;;;;5037929;28;20041;-56
2022/08/27 01:10:30;;;;;;;0.80;0.80;;;;;;;;;;5037488;28;20037;-54
2022/08/27 01:12:56;;;;;;;0.77;0.75;;;;;;;;;;5033906;28;20060;-51
2022/08/27 01:15:24;;;;;;;0.80;0.57;;;;;;;;;;5035674;28;20132;-52
2022/08/27 01:17:50;;;;;;;0.90;0.90;;;;;;;;;;5037177;28;20502;-54
2022/08/27 01:20:22;;;;;;;1.30;0.80;;;;;;;;;;5041986;28;20051;-53
2022/08/27 01:22:55;;;;;;;1.10;0.98;;;;;;;;;;5042297;28;20084;-56
2022/08/27 01:25:22;;;;;;;1.05;0.77;;;;;;;;;;5040303;28;20075;-54
2022/08/27 01:27:49;;;;;;;1.08;0.90;;;;;;;;;;5035368;28;20080;-55
2022/08/27 01:30:18;;;;;;;1.33;0.70;;;;;;;;;;5043991;28;20402;-57
2022/08/27 01:32:45;;;;;;;1.10;0.98;;;;;;;;;;5039122;28;20528;-56
2022/08/27 01:35:13;;;;;;;1.58;0.90;;;;;;;;;;5019479;28;20053;-54
2022/08/27 01:37:39;;;;;;;2.00;0.73;;;;;;;;;;5041950;28;20029;-58
2022/08/27 01:40:07;;;;;;;0.63;0.63;;;;;;;;;;5038161;28;20041;-54
2022/08/27 01:42:35;;;;;;;0.50;0.50;;;;;;;;;;5037289;28;20514;-57
2022/08/27 01:45:04;;;;;;;0.50;0.50;;;;;;;;;;5042358;28;20058;-55
2022/08/27 01:47:30;;;;;;;0.70;0.60;;;;;;;;;;5038670;28;20444;-55
2022/08/27 01:49:56;;;;;;;0.60;0.50;;;;;;;;;;5038056;28;20052;-56
2022/08/27 01:52:25;;;;;;;0.30;0.30;;;;;;;;;;5043953;28;20040;-58
2022/08/27 01:54:51;;;;;;;0.38;0.38;;;;;;;;;;5037270;28;20041;-56
2022/08/27 01:57:18;;;;;;;1.45;0.43;;;;;;;;;;5033821;28;20068;-56
2022/08/27 01:59:44;;;;;;;1.00;0.57;;;;;;;;;;5036788;28;20057;-57
2022/08/27 02:02:11;;;;;;;0.60;0.50;;;;;;;;;;5040211;28;20041;-58
2022/08/27 02:04:37;;;;;;;0.68;0.68;;;;;;;;;;5039434;28;20044;-59
2022/08/27 02:07:03;;;;;;;0.82;0.80;;;;;;;;;;5038663;28;20053;-56
2022/08/27 02:09:30;;;;;;;1.05;0.60;;;;;;;;;;5042601;28;20044;-59
2022/08/27 02:11:56;;;;;;;0.68;0.60;;;;;;;;;;5040348;28;20197;-55
2022/08/27 02:14:22;;;;;;;0.50;0.50;;;;;;;;;;5034332;28;20077;-59
2022/08/27 02:16:49;;;;;;;0.75;0.57;;;;;;;;;;5035273;28;20616;-56
2022/08/27 02:19:15;;;;;;;0.40;0.40;;;;;;;;;;5041331;28;20402;-55
2022/08/27 02:21:41;;;;;;;0.50;0.50;;;;;;;;;;5042823;28;20033;-54
2022/08/27 02:24:07;;;;;;;0.50;0.50;;;;;;;;;;5036313;28;20056;-57
2022/08/27 02:26:33;;;;;;;0.43;0.43;;;;;;;;;;5040110;28;20033;-55
2022/08/27 02:28:59;;;;;;;0.50;0.35;;;;;;;;;;5040855;28;20049;-58
2022/08/27 02:31:25;;;;;;;0.50;0.50;;;;;;;;;;5038195;28;20034;-57
2022/08/27 02:33:51;;;;;;;0.30;0.30;;;;;;;;;;5040469;28;20437;-59
2022/08/27 02:36:18;;;;;;;0.32;0.30;;;;;;;;;;5036862;28;20061;-57
2022/08/27 02:38:44;;;;;;;0.52;0.38;;;;;;;;;;5035408;28;20041;-55
2022/08/27 02:41:10;;;;;;;0.43;0.43;;;;;;;;;;5041122;28;20045;-58
2022/08/27 02:43:36;;;;;;;0.40;0.40;;;;;;;;;;5037115;28;20053;-54
2022/08/27 02:46:03;;;;;;;0.93;0.68;;;;;;;;;;5037976;28;20048;-58
2022/08/27 02:48:29;;;;;;;0.32;0.32;;;;;;;;;;5034803;28;20075;-64
2022/08/27 02:50:55;;;;;;;0.40;0.40;;;;;;;;;;5038634;28;20049;-55
2022/08/27 02:53:22;;;;;;;0.73;0.40;;;;;;;;;;5037651;28;20037;-57
2022/08/27 02:55:48;;;;;;;1.02;0.40;;;;;;;;;;5036190;28;20068;-56
2022/08/27 02:58:15;;;;;;;1.08;0.70;;;;;;;;;;5036469;28;20044;-56
2022/08/27 03:00:42;;;;;;;0.52;0.52;;;;;;;;;;5037463;28;20045;-54
2022/08/27 03:03:09;;;;;;;0.40;0.40;;;;;;;;;;5035296;28;20037;-56
2022/08/27 03:05:35;;;;;;;0.60;0.45;;;;;;;;;;5035781;28;20049;-56
2022/08/27 03:08:02;;;;;;;0.70;0.70;;;;;;;;;;5035836;28;20125;-54
2022/08/27 03:10:28;;;;;;;0.60;0.60;;;;;;;;;;5039507;28;20052;-57
2022/08/27 03:12:54;;;;;;;0.70;0.52;;;;;;;;;;5038159;28;20099;-57
2022/08/27 03:15:20;;;;;;;1.00;0.90;;;;;;;;;;5038668;28;20041;-55
2022/08/27 03:20:32;;;;;;;1.23;0.52;;;;;;;;;;5039735;28;20064;-54
2022/08/27 03:22:58;;;;;;;0.68;0.68;;;;;;;;;;5037973;28;20049;-57
2022/08/27 03:25:25;;;;;;;1.58;0.63;;;;;;;;;;5039255;28;20048;-57
2022/08/27 03:27:51;;;;;;;2.65;0.80;;;;;;;;;;5034325;28;20045;-58
2022/08/27 03:30:19;;;;;;;0.77;0.70;;;;;;;;;;5037667;28;20048;-58
2022/08/27 03:32:45;;;;;;;0.98;0.70;;;;;;;;;;5032165;28;20048;-62
2022/08/27 03:35:12;;;;;;;0.63;0.63;;;;;;;;;;5033957;28;20135;-54
2022/08/27 03:37:38;;;;;;;1.00;0.70;;;;;;;;;;5038180;28;20526;-58
2022/08/27 03:40:05;;;;;;;0.90;0.80;;;;;;;;;;5032176;28;20053;-55
2022/08/27 03:42:31;;;;;;;0.68;0.63;;;;;;;;;;5032664;28;20929;-56
2022/08/27 03:44:57;;;;;;;0.90;0.80;;;;;;;;;;5039445;28;20037;-58
2022/08/27 03:47:23;;;;;;;1.33;0.75;;;;;;;;;;5037450;28;20053;-55
2022/08/27 03:49:49;;;;;;;1.33;0.80;;;;;;;;;;5035628;28;20136;-57
2022/08/27 03:52:16;;;;;;;1.30;0.80;;;;;;;;;;5037442;28;20056;-57
2022/08/27 03:54:42;;;;;;;0.80;0.60;;;;;;;;;;5035580;28;20039;-55
2022/08/27 03:57:08;;;;;;;1.45;0.80;;;;;;;;;;5037928;28;20057;-57
2022/08/27 03:59:34;;;;;;;1.38;0.80;;;;;;;;;;5035140;28;20060;-55
2022/08/27 04:02:01;;;;;;;1.00;0.85;;;;;;;;;;5034212;28;20477;-55
2022/08/27 04:04:27;;;;;;;0.88;0.73;;;;;;;;;;5044542;28;20044;-57
2022/08/27 04:06:54;;;;;;;0.95;0.60;;;;;;;;;;5043770;28;20118;-59
2022/08/27 04:09:20;;;;;;;1.98;0.70;;;;;;;;;;5041552;28;20048;-52
2022/08/27 04:11:46;;;;;;;0.80;0.80;;;;;;;;;;5041447;28;20489;-61
2022/08/27 04:14:12;;;;;;;0.95;0.70;;;;;;;;;;5043751;28;20055;-55
2022/08/27 04:16:39;;;;;;;1.05;0.70;;;;;;;;;;5043716;28;20383;-58
2022/08/27 04:19:05;;;;;;;0.50;0.50;;;;;;;;;;5043513;28;20494;-57
2022/08/27 04:21:32;;;;;;;1.02;0.88;;;;;;;;;;5044669;28;20123;-55
2022/08/27 04:23:59;;;;;;;0.52;0.52;;;;;;;;;;5043397;28;20120;-54
2022/08/27 04:26:25;;;;;;;1.05;0.80;;;;;;;;;;5045095;28;20049;-57
2022/08/27 04:28:51;;;;;;;0.57;0.47;;;;;;;;;;5043280;28;20053;-56
2022/08/27 04:31:19;;;;;;;0.40;0.40;;;;;;;;;;5043384;28;20040;-56
2022/08/27 04:33:45;;;;;;;0.60;0.47;;;;;;;;;;5043609;28;20053;-57
2022/08/27 04:36:11;;;;;;;2.35;0.90;;;;;;;;;;5043593;28;20052;-57
2022/08/27 04:38:38;;;;;;;0.50;0.47;;;;;;;;;;5043573;28;20615;-56
2022/08/27 04:41:21;;;;;;;0.77;0.60;;;;;;;;;;5043083;28;20192;-57
2022/08/27 04:44:06;;;;;;;0.40;0.40;;;;;;;;;;5040481;28;20049;-55
2022/08/27 04:46:38;;;;;;;1.05;0.93;;;;;;;;;;5043165;28;20524;-56
2022/08/27 04:49:06;;;;;;;0.57;0.55;;;;;;;;;;5042981;28;20052;-57
2022/08/27 04:51:32;;;;;;;0.73;0.70;;;;;;;;;;5040308;28;20045;-58
2022/08/27 04:54:01;;;;;;;0.65;0.50;;;;;;;;;;5046401;28;20510;-60
2022/08/27 04:56:28;;;;;;;0.60;0.40;;;;;;;;;;5048247;28;20052;-56
2022/08/27 04:58:54;;;;;;;0.73;0.55;;;;;;;;;;5046048;28;20124;-57
2022/08/27 05:01:22;;;;;;;0.50;0.50;;;;;;;;;;5045211;28;20049;-55
2022/08/27 05:03:48;;;;;;;0.60;0.60;;;;;;;;;;5047121;28;20065;-59
2022/08/27 05:06:14;;;;;;;0.65;0.50;;;;;;;;;;5044248;28;20049;-54
2022/08/27 05:08:41;;;;;;;0.93;0.40;;;;;;;;;;5047708;28;20036;-57
2022/08/27 05:11:08;;;;;;;1.40;0.60;;;;;;;;;;5046299;28;20044;-54
2022/08/27 05:13:34;;;;;;;0.40;0.40;;;;;;;;;;5044056;28;20053;-57
2022/08/27 05:16:01;;;;;;;1.13;0.43;;;;;;;;;;5046621;28;20059;-56
2022/08/27 05:18:28;;;;;;;0.40;0.40;;;;;;;;;;5048013;28;20048;-56
2022/08/27 05:20:54;;;;;;;0.40;0.40;;;;;;;;;;5046240;28;20055;-58
2022/08/27 05:23:20;;;;;;;0.28;0.28;;;;;;;;;;5046495;28;20119;-54
2022/08/27 05:25:48;;;;;;;0.52;0.40;;;;;;;;;;5045164;28;20045;-59
2022/08/27 05:28:14;;;;;;;0.47;0.30;;;;;;;;;;5047014;28;20568;-55
2022/08/27 05:30:43;;;;;;;0.43;0.32;;;;;;;;;;5047824;28;20037;-56
2022/08/27 05:33:09;;;;;;;0.38;0.30;;;;;;;;;;5046762;28;21670;-55
2022/08/27 05:35:45;;;;;;;0.45;0.28;;;;;;;;;;5047694;28;20489;-57
2022/08/27 05:38:12;;;;;;;1.20;0.50;;;;;;;;;;5047672;28;20112;-56
2022/08/27 05:40:42;;;;;;;0.50;0.35;;;;;;;;;;5047042;28;20144;-57
2022/08/27 05:43:08;;;;;;;0.10;0.10;;;;;;;;;;5029171;28;20048;-54
2022/08/27 05:45:39;;;;;;;0.35;0.20;;;;;;;;;;5047362;28;20386;-57
2022/08/27 05:48:05;;;;;;;0.32;0.30;;;;;;;;;;5046262;28;20049;-57
2022/08/27 05:50:31;;;;;;;0.15;0.15;;;;;;;;;;5047459;28;20519;-54
2022/08/27 05:52:57;;;;;;;0.20;0.20;;;;;;;;;;5047392;28;20041;-55
2022/08/27 05:55:23;;;;;;;0.40;0.30;;;;;;;;;;5046707;28;20039;-58
2022/08/27 05:57:49;;;;;;;0.65;0.25;;;;;;;;;;5033403;28;20788;-55
2022/08/27 06:03:00;;;;;;;0.25;0.25;;;;;;;;;;5032213;28;20128;-54
2022/08/27 06:05:26;;;;;;;0.20;0.20;;;;;;;;;;5028700;28;20125;-54
2022/08/27 06:07:52;;;;;;;0.20;0.20;;;;;;;;;;5037061;28;20044;-58
2022/08/27 06:10:18;;;;;;;0.32;0.13;;;;;;;;;;5031810;28;20045;-55
2022/08/27 06:12:44;;;;;;;0.30;0.20;;;;;;;;;;5028913;28;20051;-57
2022/08/27 06:15:10;;;;;;;0.10;0.10;;;;;;;;;;5037414;28;20046;-58
2022/08/27 06:17:36;;;;;;;0.20;0.20;;;;;;;;;;5034953;28;20423;-57
2022/08/27 06:20:02;;;;;;;0.40;0.25;;;;;;;;;;5036070;28;20053;-55
2022/08/27 06:22:29;;;;;;;0.10;0.10;;;;;;;;;;5034631;28;20069;-58
2022/08/27 06:24:56;;;;;;;0.10;0.10;;;;;;;;;;5037492;28;20132;-57
2022/08/27 06:27:21;;;;;;;0.20;0.10;;;;;;;;;;5034598;28;20593;-54
2022/08/27 06:29:47;;;;;;;0.00;0.00;;;;;;;;;;5017700;28;20136;-56
2022/08/27 06:32:14;;;;;;;0.08;0.08;;;;;;;;;;5026514;28;20115;-56
2022/08/27 06:34:40;;;;;;;0.03;0.00;;;;;;;;;;5023464;28;20042;-56
2022/08/27 06:37:06;;;;;;;;;;;;;;;;;;5026120;28;20091;-57
2022/08/27 06:39:32;;;;;;;;;;;;;;;;;;5026859;28;19924;-57
2022/08/27 06:41:58;;;;;;;;;;;;;;;;;;5035678;28;19928;-58
2022/08/27 06:44:24;;;;;;;0.20;0.20;;;;;;;;;;5027413;28;19925;-53
2022/08/27 06:46:50;;;;;;;;;;;;;;;;;;5035529;28;19936;-59
2022/08/27 06:49:16;;;;;;;;;;;;;;;;;;5027195;28;20003;-55
2022/08/27 06:51:42;;;;;;;;;;;;;;;;;;5025536;28;20026;-58
2022/08/27 06:54:08;;;;;;;;;;;;;;;;;;5024364;28;20340;-58
2022/08/27 06:56:34;;;;;;;;;;;;;;;;;;5032349;28;19932;-54
2022/08/27 06:59:00;;;;;;;;;;;;;;;;;;5045349;28;20290;-55
2022/08/27 07:01:26;;;;;;;;;;;;;;;;;;5040710;28;19959;-54
2022/08/27 07:03:52;;;;;;;;;;;;;;;;;;5026523;28;19936;-57
2022/08/27 07:06:18;;;;;;;;;;;;;;;;;;5046491;28;20160;-55
2022/08/27 07:08:45;;;;;;;;;;;;;;;;;;5046952;28;19928;-58
2022/08/27 07:11:11;;;;;;;;;;;;;;;;;;5046557;28;19936;-58
2022/08/27 07:13:37;;;;;;;;;;;;;;;;;;5046293;28;19928;-58
2022/08/27 07:16:04;;;;;;;;;;;;;;;;;;5046439;28;20313;-57
2022/08/27 07:18:30;;;;;;;;;;;;;;;;;;5046527;28;20467;-57
2022/08/27 07:20:55;;;;;;;;;;;;;;;;;;5045574;28;19937;-57
2022/08/27 07:23:21;;;;;;;;;;;;;;;;;;5045230;28;19925;-57
2022/08/27 07:25:47;;;;;;;;;;;;;;;;;;5045009;28;19983;-57
2022/08/27 07:28:13;;;;;;;;;;;;;;;;;;5043483;28;20043;-58
2022/08/27 07:30:39;;;;;;;;;;;;;;;;;;5041338;28;19928;-58
2022/08/27 07:33:05;;;;;;;;;;;;;;;;;;5023866;28;19945;-55
2022/08/27 07:35:31;;;;;;;;;;;;;;;;;;5046924;28;19928;-58
2022/08/27 07:37:57;;;;;;;;;;;;;;;;;;5046966;28;20416;-61
2022/08/27 07:40:23;;;;;;;;;;;;;;;;;;5028316;28;19932;-57
2022/08/27 07:45:33;;;;;;;;;;;;;;;;;;5040453;28;19933;-54
2022/08/27 07:47:59;;;;;;;;;;;;;;;;;;5044724;28;19925;-60
2022/08/27 07:50:25;;;;;;;;;;;;;;;;;;5046361;28;20675;-55
2022/08/27 07:52:51;;;;;;;;;;;;;;;;;;5044684;28;19925;-59
2022/08/27 07:55:17;;;;;;;;;;;;;;;;;;5037770;28;19932;-57
2022/08/27 07:57:44;;;;;;;;;;;;;;;;;;5044629;28;20400;-58
2022/08/27 08:00:10;;;;;;;;;;;;;;;;;;5045377;28;20019;-55
2022/08/27 08:02:36;;;;;;;;;;;;;;;;;;5045082;28;20015;-58
2022/08/27 08:05:01;;;;;;;;;;;;;;;;;;5045076;28;19932;-54
2022/08/27 08:07:28;;;;;;;;;;;;;;;;;;5046156;28;19928;-57
2022/08/27 08:09:54;;;;;;;;;;;;;;;;;;5044112;28;19929;-57
2022/08/27 08:12:20;;;;;;;;;;;;;;;;;;5045731;28;20580;-54
2022/08/27 08:14:46;;;;;;;;;;;;;;;;;;5043382;28;20614;-57
2022/08/27 08:17:13;;;;;;;;;;;;;;;;;;5045149;28;19982;-55
2022/08/27 08:19:39;;;;;;;1.05;0.50;;;;;;;;;;5044684;28;19925;-55
2022/08/27 08:22:05;;;;;;;1.17;0.60;;;;;;;;;;5043736;28;20099;-56
2022/08/27 08:24:31;;;;;;;2.92;1.00;;;;;;;;;;5044902;28;20041;-54
2022/08/27 08:26:57;;;;;;;;;;;;;;;;;;5045691;28;20056;-58
2022/08/27 08:29:23;;;;;;;;;;;;;;;;;;5048385;28;19921;-54
2022/08/27 08:31:49;;;;;;;;;;;;;;;;;;5049407;28;19949;-55
2022/08/27 08:34:15;;;;;;;;;;;;;;;;;;5049356;28;19921;-54
2022/08/27 08:36:41;;;;;;;;;;;;;;;;;;5048747;28;19928;-56
2022/08/27 08:39:07;;;;;;;;;;;;;;;;;;5047931;28;19921;-56
2022/08/27 08:41:33;;;;;;;;;;;;;;;;;;5049723;28;19921;-55
2022/08/27 08:43:59;;;;;;;;;;;;;;;;;;5048798;28;19927;-56
2022/08/27 08:46:25;;;;;;;;;;;;;;;;;;5050136;28;19920;-54
2022/08/27 08:48:51;;;;;;;;;;;;;;;;;;5048729;28;19954;-58
2022/08/27 08:51:17;;;;;;;;;;;;;;;;;;5048242;28;19921;-53
2022/08/27 08:53:42;;;;;;;;;;;;;;;;;;5049055;28;19925;-57
2022/08/27 08:56:08;;;;;;;;;;;;;;;;;;5048393;28;20454;-59
2022/08/27 08:58:34;;;;;;;;;;;;;;;;;;5043448;28;19979;-57
2022/08/27 09:01:00;;;;;;;;;;;;;;;;;;5041831;28;19928;-54
2022/08/27 09:03:26;;;;;;;;;;;;;;;;;;5027654;28;19925;-57
2022/08/27 09:05:53;;;;;;;;;;;;;;;;;;5015413;28;19940;-57
2022/08/27 09:08:19;;;;;;;;;;;;;;;;;;5017309;28;19925;-55
2022/08/27 09:10:45;;;;;;;;;;;;;;;;;;5015302;28;19979;-59
2022/08/27 09:13:11;;;;;;;;;;;;;;;;;;5016898;28;21611;-55
2022/08/27 09:15:37;;;;;;;;;;;;;;;;;;5029273;28;19925;-55
2022/08/27 09:18:02;;;;;;;;;;;;;;;;;;5048920;28;20005;-59
2022/08/27 09:20:28;;;;;;;;;;;;;;;;;;5049756;28;19917;-61
2022/08/27 09:22:54;;;;;;;;;;;;;;;;;;5049433;28;19924;-57
2022/08/27 09:25:20;;;;;;;;;;;;;;;;;;5031761;28;20278;-55
2022/08/27 09:27:46;;;;;;;;;;;;;;;;;;5029130;28;19921;-58
2022/08/27 09:30:12;;;;;;;;;;;;;;;;;;5029308;28;20453;-58
2022/08/27 09:32:38;;;;;;;;;;;;;;;;;;5028834;28;19929;-54
2022/08/27 09:35:04;;;;;;;;;;;;;;;;;;5011258;28;19931;-57
2022/08/27 09:37:30;;;;;;;;;;;;;;;;;;5029154;28;19928;-55
2022/08/27 09:39:56;;;;;;;;;;;;;;;;;;5028521;28;19925;-56
2022/08/27 09:42:22;;;;;;;;;;;;;;;;;;5029014;28;19925;-58
2022/08/27 09:44:48;;;;;;;;;;;;;;;;;;5028718;28;19921;-56
2022/08/27 09:47:14;;;;;;;;;;;;;;;;;;5022524;28;19929;-55
2022/08/27 09:49:40;;;;;;;;;;;;;;;;;;5030276;28;19921;-59
2022/08/27 09:52:06;;;;;;;;;;;;;;;;;;5040392;28;19934;-55
2022/08/27 09:54:32;;;;;;;;;;;;;;;;;;5044025;28;19931;-58
2022/08/27 09:56:58;;;;;;;;;;;;;;;;;;5034843;28;20287;-53
2022/08/27 09:59:27;;;;;;;2.00;0.57;;;;;;;;;;5028617;28;19932;-56
2022/08/27 10:02:01;;;;;;;4.80;1.10;;;;;;;;;;5031876;28;20049;-58
2022/08/27 10:04:38;;;;;;;1.05;0.65;;;;;;;;;;5035667;28;20045;-58
2022/08/27 10:07:18;;;;;;;1.70;0.68;;;;;;;;;;5027192;28;20056;-57
2022/08/27 10:09:49;;;;;;;2.08;0.50;;;;;;;;;;5034587;28;20040;-57
2022/08/27 10:12:22;;;;;;;1.25;0.50;;;;;;;;;;5038560;28;20402;-53
2022/08/27 10:14:51;;;;;;;1.75;0.73;;;;;;;;;;5026892;28;20049;-56
2022/08/27 10:17:27;;;;;;;1.67;0.50;;;;;;;;;;5038226;28;20564;-57
2022/08/27 10:20:03;;;;;;;1.20;0.60;;;;;;;;;;5024808;28;20056;-54
2022/08/27 10:22:30;;;;;;;0.98;0.47;;;;;;;;;;5028437;28;20046;-61
2022/08/27 10:25:02;;;;;;;1.42;0.60;;;;;;;;;;5013177;28;20045;-55
2022/08/27 10:27:28;;;;;;;;;;;;;;;;;;5017524;28;20046;-58
2022/08/27 10:30:07;;;;;;;2.65;0.77;;;;;;;;;;5007561;28;19921;-56
2022/08/27 10:32:33;;;;;;;1.90;0.57;;;;;;;;;;5007953;28;20065;-57
2022/08/27 10:35:18;;;;;;;3.75;1.05;;;;;;;;;;5014480;28;20038;-62
2022/08/27 10:37:52;;;;;;;3.08;1.20;;;;;;;;;;5023746;28;20041;-54
2022/08/27 10:40:18;;;;;;;2.40;0.85;;;;;;;;;;5041847;28;20045;-56
2022/08/27 10:42:54;;;;;;;1.92;0.50;;;;;;;;;;5030673;28;20053;-54
2022/08/27 10:45:30;;;;;;;0.90;0.57;;;;;;;;;;5045779;28;20053;-57
2022/08/27 10:48:25;;;;;;;0.40;0.38;;;;;;;;;;5031550;28;20041;-55
2022/08/27 10:50:53;;;;;;;1.02;0.55;;;;;;;;;;4941416;28;20191;-54
2022/08/27 10:53:28;;;;;;;2.20;0.60;;;;;;;;;;5032738;28;20056;-52
2022/08/27 10:56:13;;;;;;;3.83;1.20;;;;;;;;;;5038482;28;20678;-55
2022/08/27 10:58:45;;;;;;;1.80;0.90;;;;;;;;;;5035230;28;20498;-57
2022/08/27 11:01:26;;;;;;;2.30;0.82;;;;;;;;;;5031907;28;20422;-51
2022/08/27 11:03:55;;;;;;;5.68;1.00;;;;;;;;;;5032638;28;20252;-53
2022/08/27 11:06:34;;;;;;;3.92;0.90;;;;;;;;;;5029442;28;20121;-50
2022/08/27 11:09:09;;;;;;;1.58;0.55;;;;;;;;;;5026874;28;20068;-50
2022/08/27 11:11:43;;;;;;;0.73;0.47;;;;;;;;;;5032474;28;20037;-57
2022/08/27 11:14:15;;;;;;;1.00;0.30;;;;;;;;;;5043568;28;20048;-53
2022/08/27 11:16:47;;;;;;;1.02;0.70;;;;;;;;;;5020997;28;20042;-54
2022/08/27 11:19:22;;;;;;;0.63;0.30;;;;;;;;;;5017832;28;20494;-57
2022/08/27 11:22:06;;;;;;;1.42;0.30;;;;;;;;;;5024909;28;20791;-59
2022/08/27 11:24:36;;;;;;;1.70;0.50;;;;;;;;;;5026713;28;20057;-54
2022/08/27 11:27:04;;;;;;;2.35;0.60;;;;;;;;;;5019776;28;20056;-54
2022/08/27 11:29:30;;;;;;;;;;;;;;;;;;5018710;28;20108;-57
2022/08/27 11:31:56;;;;;;;;;;;;;;;;;;5014787;28;20015;-56
2022/08/27 11:34:39;;;;;;;1.23;0.40;;;;;;;;;;5013940;28;19984;-56
2022/08/27 11:37:05;;;;;;;0.80;0.47;;;;;;;;;;5011748;28;20491;-54
2022/08/27 11:39:48;;;;;;;2.10;0.45;;;;;;;;;;5013468;28;20042;-55
2022/08/27 11:42:34;;;;;;;2.53;0.60;;;;;;;;;;5015744;28;20045;-55
2022/08/27 11:45:05;;;;;;;1.15;0.40;;;;;;;;;;5032641;28;20080;-59
2022/08/27 11:47:31;;;;;;;1.58;0.47;;;;;;;;;;5038575;28;20033;-54
2022/08/27 11:50:00;;;;;;;2.08;0.70;;;;;;;;;;5026914;28;20111;-57
2022/08/27 11:52:27;;;;;;;3.67;0.70;;;;;;;;;;5033071;28;20110;-58
2022/08/27 11:55:09;;;;;;;1.48;0.68;;;;;;;;;;5040234;28;20048;-54
2022/08/27 11:57:35;;;;;;;2.22;0.47;;;;;;;;;;5035580;28;20060;-54
2022/08/27 12:00:22;;;;;;;2.85;0.50;;;;;;;;;;5044141;28;20052;-57
2022/08/27 12:03:02;;;;;;;2.17;0.63;;;;;;;;;;5041861;28;20056;-57
2022/08/27 12:05:55;;;;;;;3.08;1.10;;;;;;;;;;5042110;28;20394;-56
2022/08/27 12:08:20;;;;;;;0.85;0.50;;;;;;;;;;5006418;28;20049;-56
2022/08/27 12:11:05;;;;;;;1.40;0.57;;;;;;;;;;5045336;28;20608;-54
2022/08/27 12:13:43;;;;;;;0.80;0.52;;;;;;;;;;5038451;28;20049;-55
2022/08/27 12:16:24;;;;;;;0.70;0.40;;;;;;;;;;5038652;28;20049;-58
2022/08/27 12:19:08;;;;;;;2.58;0.77;;;;;;;;;;5042422;28;20414;-60
2022/08/27 12:21:34;;;;;;;;;;;;;;;;;;5044627;28;19931;-54
2022/08/27 12:24:19;;;;;;;1.88;0.43;;;;;;;;;;5043987;28;20292;-58
2022/08/27 12:26:57;;;;;;;1.33;0.52;;;;;;;;;;5045001;28;20049;-56
2022/08/27 12:29:32;;;;;;;1.23;0.65;;;;;;;;;;5044868;28;20103;-59
2022/08/27 12:32:07;;;;;;;0.82;0.32;;;;;;;;;;5045296;28;20055;-57
2022/08/27 12:34:42;;;;;;;0.88;0.40;;;;;;;;;;5045451;28;20051;-58
2022/08/27 12:37:09;;;;;;;0.70;0.30;;;;;;;;;;5044723;28;20041;-57
2022/08/27 12:39:37;;;;;;;0.43;0.43;;;;;;;;;;5045555;28;20049;-56
2022/08/27 12:42:11;;;;;;;1.02;0.40;;;;;;;;;;5044287;28;20045;-58
2022/08/27 12:44:37;;;;;;;1.02;0.43;;;;;;;;;;5045505;28;20049;-57
2022/08/27 12:47:06;;;;;;;2.10;0.70;;;;;;;;;;5045222;28;20045;-57
2022/08/27 12:49:38;;;;;;;1.42;0.65;;;;;;;;;;5044926;28;20080;-57
2022/08/27 12:52:13;;;;;;;0.60;0.50;;;;;;;;;;5045375;28;20045;-55
2022/08/27 12:54:46;;;;;;;1.20;0.60;;;;;;;;;;5044046;28;20052;-55
2022/08/27 12:57:27;;;;;;;2.58;1.08;;;;;;;;;;5044915;28;20868;-56
2022/08/27 13:00:14;;;;;;;1.10;0.82;;;;;;;;;;5045142;28;20053;-58
2022/08/27 13:02:49;;;;;;;3.30;1.00;;;;;;;;;;5026447;28;20402;-56
2022/08/27 13:05:18;;;;;;;1.80;0.90;;;;;;;;;;5038653;28;20056;-56
2022/08/27 13:07:45;;;;;;;3.35;0.90;;;;;;;;;;5045398;28;20056;-55
2022/08/27 13:10:13;;;;;;;1.80;1.00;;;;;;;;;;5044637;28;20128;-55
2022/08/27 13:12:40;;;;;;;1.05;0.70;;;;;;;;;;5045282;28;20048;-58
2022/08/27 13:15:07;;;;;;;2.55;0.60;;;;;;;;;;5047646;28;20247;-55
2022/08/27 13:17:36;;;;;;;2.10;1.10;;;;;;;;;;5048837;28;20424;-55
2022/08/27 13:20:02;;;;;;;1.93;0.90;;;;;;;;;;5048751;28;20045;-60
2022/08/27 13:22:30;;;;;;;;;;;;;;;;;;5049996;28;19928;-58
2022/08/27 13:24:56;;;;;;;;;;;;;;;;;;5041793;28;19955;-57
2022/08/27 13:27:22;;;;;;;;;;;;;;;;;;5047517;28;20377;-55
2022/08/27 13:29:48;;;;;;;;;;;;;;;;;;5043320;28;19960;-58
2022/08/27 13:32:14;;;;;;;1.65;0.85;;;;;;;;;;5046795;28;19943;-59
2022/08/27 13:34:40;;;;;;;2.00;0.50;;;;;;;;;;5047083;28;20047;-57
2022/08/27 13:37:24;;;;;;;1.30;0.60;;;;;;;;;;5047583;28;20048;-55
2022/08/27 13:39:55;;;;;;;2.47;0.82;;;;;;;;;;5047376;28;20141;-60
2022/08/27 13:42:20;;;;;;;;;;;;;;;;;;5048904;28;20055;-59
2022/08/27 13:44:47;;;;;;;;;;;;;;;;;;5048684;28;20008;-55
2022/08/27 13:47:16;;;;;;;1.00;0.60;;;;;;;;;;5048235;28;20003;-57
2022/08/27 13:49:42;;;;;;;0.68;0.35;;;;;;;;;;5048484;28;20500;-55
2022/08/27 13:52:26;;;;;;;1.58;0.50;;;;;;;;;;5047911;28;20497;-56
2022/08/27 13:55:02;;;;;;;1.67;0.70;;;;;;;;;;5044267;28;20136;-60
2022/08/27 13:57:43;;;;;;;1.25;0.63;;;;;;;;;;5034849;28;20049;-59
2022/08/27 14:00:13;;;;;;;1.65;0.60;;;;;;;;;;5038968;28;20843;-58
2022/08/27 14:02:41;;;;;;;3.03;0.80;;;;;;;;;;5020658;28;20038;-55
2022/08/27 14:05:08;;;;;;;;;;;;;;;;;;5035394;28;20106;-58
2022/08/27 14:07:34;;;;;;;;;;;;;;;;;;5042645;28;20015;-58
2022/08/27 14:10:00;;;;;;;;;;;;;;;;;;5039313;28;19927;-59
2022/08/27 14:12:26;;;;;;;;;;;;;;;;;;5039295;28;19928;-55
2022/08/27 14:14:53;;;;;;;;;;;;;;;;;;5039339;28;19925;-57
2022/08/27 14:17:19;;;;;;;;;;;;;;;;;;5037698;28;19924;-56
2022/08/27 14:19:46;;;;;;;;;;;;;;;;;;5044586;28;19931;-58
2022/08/27 14:22:13;;;;;;;;;;;;;;;;;;5041237;28;19924;-58
2022/08/27 14:24:39;;;;;;;;;;;;;;;;;;5034989;28;19929;-58
2022/08/27 14:27:05;;;;;;;;;;;;;;;;;;5038425;28;20402;-57
2022/08/27 14:29:31;;;;;;;;;;;;;;;;;;5044256;28;19927;-58
2022/08/27 14:31:56;;;;;;;;;;;;;;;;;;5039132;28;19921;-55
2022/08/27 14:34:22;;;;;;;1.17;0.75;;;;;;;;;;5039175;28;19974;-57
2022/08/27 14:36:48;;;;;;;1.77;0.52;;;;;;;;;;5039497;28;20580;-55
2022/08/27 14:39:14;;;;;;;2.22;0.82;;;;;;;;;;5039158;28;20049;-57
2022/08/27 14:41:40;;;;;;;1.48;0.47;;;;;;;;;;5045721;28;20047;-55
2022/08/27 14:44:06;;;;;;;1.10;0.60;;;;;;;;;;5035720;28;20045;-58
2022/08/27 14:46:37;;;;;;;0.80;0.43;;;;;;;;;;5042780;28;20099;-55
2022/08/27 14:49:03;;;;;;;;;;;;;;;;;;5037603;28;20049;-56
2022/08/27 14:51:28;;;;;;;;;;;;;;;;;;5039793;28;19932;-59
2022/08/27 14:53:55;;;;;;;;;;;;;;;;;;5043121;28;20347;-55
2022/08/27 14:56:21;;;;;;;;;;;;;;;;;;5040013;28;20297;-58
2022/08/27 14:58:47;;;;;;;;;;;;;;;;;;5042553;28;19924;-56
2022/08/27 15:01:12;;;;;;;;;;;;;;;;;;5039585;28;19948;-56
2022/08/27 15:03:38;;;;;;;;;;;;;;;;;;5033999;28;20008;-54
2022/08/27 15:06:04;;;;;;;;;;;;;;;;;;5039093;28;20279;-54
2022/08/27 15:08:30;;;;;;;;;;;;;;;;;;5037529;28;20293;-56
2022/08/27 15:10:57;;;;;;;5.38;1.25;;;;;;;;;;5042025;28;19929;-55
2022/08/27 15:13:23;;;;;;;2.08;1.05;;;;;;;;;;5042376;28;20481;-55
2022/08/27 15:15:49;;;;;;;;;;;;;;;;;;5041228;28;20048;-55
2022/08/27 15:18:15;;;;;;;;;;;;;;;;;;5041005;28;20437;-56
2022/08/27 15:20:41;;;;;;;;;;;;;;;;;;5041082;28;19966;-54
2022/08/27 15:23:08;;;;;;;3.70;0.93;;;;;;;;;;5035001;28;19921;-57
2022/08/27 15:25:34;;;;;;;1.97;0.90;;;;;;;;;;5035349;28;20101;-59
2022/08/27 15:28:00;;;;;;;;;;;;;;;;;;5032051;28;19920;-58
2022/08/27 15:30:26;;;;;;;;;;;;;;;;;;5039484;28;19921;-58
2022/08/27 15:32:52;;;;;;;1.52;0.90;;;;;;;;;;5037343;28;20725;-55